sensor_id;sensor_type;location;lat;lon;timestamp;P1;durP1;ratioP1;P2;durP2;ratioP2
54271;SDS011;40184;53.362;5.216;2023-02-24T00:01:13;9.10;;;1.88;;
54271;SDS011;40184;53.362;5.216;2023-02-24T00:03:48;11.18;;;1.90;;
54271;SDS011;40184;53.362;5.216;2023-02-24T00:06:13;13.00;;;1.83;;
54271;SDS011;40184;53.362;5.216;2023-02-24T00:08:39;13.50;;;2.40;;
54271;SDS011;40184;53.362;5.216;2023-02-24T00:11:10;10.00;;;1.95;;
54271;SDS011;40184;53.362;5.216;2023-02-24T00:13:38;8.20;;;1.67;;
54271;SDS011;40184;53.362;5.216;2023-02-24T00:16:04;9.40;;;2.05;;
54271;SDS011;40184;53.362;5.216;2023-02-24T00:18:31;9.43;;;2.17;;
54271;SDS011;40184;53.362;5.216;2023-02-24T00:21:04;15.02;;;2.78;;
54271;SDS011;40184;53.362;5.216;2023-02-24T00:23:33;20.45;;;2.75;;
54271;SDS011;40184;53.362;5.216;2023-02-24T00:26:03;16.42;;;2.42;;
54271;SDS011;40184;53.362;5.216;2023-02-24T00:28:31;15.77;;;2.17;;
54271;SDS011;40184;53.362;5.216;2023-02-24T00:31:01;9.98;;;2.25;;
54271;SDS011;40184;53.362;5.216;2023-02-24T00:33:30;15.77;;;2.33;;
54271;SDS011;40184;53.362;5.216;2023-02-24T00:36:07;10.80;;;2.38;;
54271;SDS011;40184;53.362;5.216;2023-02-24T00:38:35;15.18;;;2.38;;
54271;SDS011;40184;53.362;5.216;2023-02-24T00:41:09;18.23;;;3.63;;
54271;SDS011;40184;53.362;5.216;2023-02-24T00:43:38;16.15;;;2.78;;
54271;SDS011;40184;53.362;5.216;2023-02-24T00:48:41;12.63;;;2.35;;
54271;SDS011;40184;53.362;5.216;2023-02-24T00:51:09;14.07;;;4.07;;
54271;SDS011;40184;53.362;5.216;2023-02-24T00:53:39;27.77;;;3.28;;
54271;SDS011;40184;53.362;5.216;2023-02-24T00:56:05;19.98;;;2.97;;
54271;SDS011;40184;53.362;5.216;2023-02-24T00:58:34;15.40;;;2.78;;
54271;SDS011;40184;53.362;5.216;2023-02-24T01:01:00;13.70;;;3.55;;
54271;SDS011;40184;53.362;5.216;2023-02-24T01:03:27;14.85;;;3.92;;
54271;SDS011;40184;53.362;5.216;2023-02-24T01:05:53;13.43;;;2.65;;
54271;SDS011;40184;53.362;5.216;2023-02-24T01:08:19;20.27;;;2.50;;
54271;SDS011;40184;53.362;5.216;2023-02-24T01:10:54;17.17;;;2.47;;
54271;SDS011;40184;53.362;5.216;2023-02-24T01:13:41;14.52;;;2.75;;
54271;SDS011;40184;53.362;5.216;2023-02-24T01:16:07;10.82;;;2.72;;
54271;SDS011;40184;53.362;5.216;2023-02-24T01:18:32;17.05;;;2.95;;
54271;SDS011;40184;53.362;5.216;2023-02-24T01:20:58;12.18;;;2.47;;
54271;SDS011;40184;53.362;5.216;2023-02-24T01:23:24;27.17;;;3.42;;
54271;SDS011;40184;53.362;5.216;2023-02-24T01:25:50;16.42;;;2.83;;
54271;SDS011;40184;53.362;5.216;2023-02-24T01:28:17;10.52;;;2.53;;
54271;SDS011;40184;53.362;5.216;2023-02-24T01:30:43;13.80;;;2.80;;
54271;SDS011;40184;53.362;5.216;2023-02-24T01:33:09;15.20;;;1.75;;
54271;SDS011;40184;53.362;5.216;2023-02-24T01:35:39;18.98;;;2.58;;
54271;SDS011;40184;53.362;5.216;2023-02-24T01:38:05;16.20;;;3.05;;
54271;SDS011;40184;53.362;5.216;2023-02-24T01:40:31;17.70;;;3.90;;
54271;SDS011;40184;53.362;5.216;2023-02-24T01:42:57;13.65;;;2.55;;
54271;SDS011;40184;53.362;5.216;2023-02-24T01:45:27;13.35;;;1.77;;
54271;SDS011;40184;53.362;5.216;2023-02-24T01:47:56;17.63;;;2.90;;
54271;SDS011;40184;53.362;5.216;2023-02-24T01:50:24;21.98;;;3.92;;
54271;SDS011;40184;53.362;5.216;2023-02-24T01:52:54;19.92;;;4.15;;
54271;SDS011;40184;53.362;5.216;2023-02-24T01:55:27;13.50;;;2.25;;
54271;SDS011;40184;53.362;5.216;2023-02-24T01:58:19;21.60;;;4.28;;
54271;SDS011;40184;53.362;5.216;2023-02-24T02:00:52;17.48;;;3.15;;
54271;SDS011;40184;53.362;5.216;2023-02-24T02:03:22;14.50;;;3.58;;
54271;SDS011;40184;53.362;5.216;2023-02-24T02:05:55;13.88;;;2.95;;
54271;SDS011;40184;53.362;5.216;2023-02-24T02:08:25;20.33;;;3.42;;
54271;SDS011;40184;53.362;5.216;2023-02-24T02:10:52;14.32;;;3.17;;
54271;SDS011;40184;53.362;5.216;2023-02-24T02:13:23;22.67;;;3.97;;
54271;SDS011;40184;53.362;5.216;2023-02-24T02:16:00;14.20;;;3.25;;
54271;SDS011;40184;53.362;5.216;2023-02-24T02:18:33;11.25;;;2.22;;
54271;SDS011;40184;53.362;5.216;2023-02-24T02:21:57;14.98;;;3.55;;
54271;SDS011;40184;53.362;5.216;2023-02-24T02:26:32;20.98;;;3.92;;
54271;SDS011;40184;53.362;5.216;2023-02-24T02:34:47;18.00;;;3.00;;
54271;SDS011;40184;53.362;5.216;2023-02-24T02:50:24;15.88;;;3.35;;
54271;SDS011;40184;53.362;5.216;2023-02-24T02:52:59;21.98;;;4.63;;
54271;SDS011;40184;53.362;5.216;2023-02-24T02:58:05;12.35;;;2.50;;
54271;SDS011;40184;53.362;5.216;2023-02-24T03:00:37;16.00;;;4.00;;
54271;SDS011;40184;53.362;5.216;2023-02-24T03:03:14;13.15;;;2.67;;
54271;SDS011;40184;53.362;5.216;2023-02-24T03:05:48;15.32;;;2.70;;
54271;SDS011;40184;53.362;5.216;2023-02-24T03:08:21;20.20;;;3.22;;
54271;SDS011;40184;53.362;5.216;2023-02-24T03:10:50;21.67;;;3.72;;
54271;SDS011;40184;53.362;5.216;2023-02-24T03:13:19;14.57;;;3.10;;
54271;SDS011;40184;53.362;5.216;2023-02-24T03:15:49;12.82;;;2.58;;
54271;SDS011;40184;53.362;5.216;2023-02-24T03:18:27;21.60;;;4.47;;
54271;SDS011;40184;53.362;5.216;2023-02-24T03:21:04;21.20;;;3.08;;
54271;SDS011;40184;53.362;5.216;2023-02-24T03:23:38;16.95;;;3.20;;
54271;SDS011;40184;53.362;5.216;2023-02-24T03:29:08;28.85;;;4.00;;
54271;SDS011;40184;53.362;5.216;2023-02-24T03:34:22;19.35;;;2.30;;
54271;SDS011;40184;53.362;5.216;2023-02-24T03:36:57;19.92;;;4.28;;
54271;SDS011;40184;53.362;5.216;2023-02-24T03:39:23;29.48;;;5.53;;
54271;SDS011;40184;53.362;5.216;2023-02-24T03:42:03;21.08;;;3.53;;
54271;SDS011;40184;53.362;5.216;2023-02-24T03:44:38;22.90;;;3.70;;
54271;SDS011;40184;53.362;5.216;2023-02-24T03:47:04;19.58;;;2.95;;
54271;SDS011;40184;53.362;5.216;2023-02-24T03:49:30;28.23;;;4.20;;
54271;SDS011;40184;53.362;5.216;2023-02-24T03:52:18;24.10;;;3.65;;
54271;SDS011;40184;53.362;5.216;2023-02-24T04:05:39;21.25;;;4.03;;
54271;SDS011;40184;53.362;5.216;2023-02-24T04:08:16;21.77;;;4.03;;
54271;SDS011;40184;53.362;5.216;2023-02-24T04:10:49;29.83;;;5.20;;
54271;SDS011;40184;53.362;5.216;2023-02-24T04:13:54;27.00;;;4.10;;
54271;SDS011;40184;53.362;5.216;2023-02-24T04:16:26;23.30;;;5.40;;
54271;SDS011;40184;53.362;5.216;2023-02-24T04:19:03;31.92;;;6.15;;
54271;SDS011;40184;53.362;5.216;2023-02-24T04:21:32;29.70;;;5.93;;
54271;SDS011;40184;53.362;5.216;2023-02-24T04:24:01;23.77;;;4.55;;
54271;SDS011;40184;53.362;5.216;2023-02-24T04:28:58;27.05;;;5.40;;
54271;SDS011;40184;53.362;5.216;2023-02-24T04:31:24;25.23;;;5.70;;
54271;SDS011;40184;53.362;5.216;2023-02-24T04:33:52;21.95;;;4.30;;
54271;SDS011;40184;53.362;5.216;2023-02-24T04:36:18;21.55;;;4.35;;
54271;SDS011;40184;53.362;5.216;2023-02-24T04:38:45;31.20;;;5.70;;
54271;SDS011;40184;53.362;5.216;2023-02-24T04:41:12;25.33;;;5.43;;
54271;SDS011;40184;53.362;5.216;2023-02-24T04:43:44;32.38;;;4.97;;
54271;SDS011;40184;53.362;5.216;2023-02-24T04:46:11;25.65;;;5.35;;
54271;SDS011;40184;53.362;5.216;2023-02-24T04:48:37;30.02;;;5.57;;
54271;SDS011;40184;53.362;5.216;2023-02-24T04:51:03;28.48;;;6.57;;
54271;SDS011;40184;53.362;5.216;2023-02-24T04:53:30;23.45;;;4.30;;
54271;SDS011;40184;53.362;5.216;2023-02-24T04:55:56;23.88;;;5.53;;
54271;SDS011;40184;53.362;5.216;2023-02-24T04:58:26;30.45;;;5.15;;
54271;SDS011;40184;53.362;5.216;2023-02-24T05:00:52;31.85;;;5.50;;
54271;SDS011;40184;53.362;5.216;2023-02-24T05:03:18;25.23;;;6.97;;
54271;SDS011;40184;53.362;5.216;2023-02-24T05:05:52;31.35;;;6.18;;
54271;SDS011;40184;53.362;5.216;2023-02-24T05:08:24;25.95;;;5.03;;
54271;SDS011;40184;53.362;5.216;2023-02-24T05:10:52;26.00;;;5.30;;
54271;SDS011;40184;53.362;5.216;2023-02-24T05:13:21;26.73;;;6.50;;
54271;SDS011;40184;53.362;5.216;2023-02-24T05:15:55;34.35;;;5.68;;
54271;SDS011;40184;53.362;5.216;2023-02-24T05:18:32;33.15;;;5.68;;
54271;SDS011;40184;53.362;5.216;2023-02-24T05:21:10;41.63;;;6.57;;
54271;SDS011;40184;53.362;5.216;2023-02-24T05:23:56;34.58;;;5.97;;
54271;SDS011;40184;53.362;5.216;2023-02-24T05:26:23;31.58;;;5.68;;
54271;SDS011;40184;53.362;5.216;2023-02-24T05:28:51;33.38;;;5.63;;
54271;SDS011;40184;53.362;5.216;2023-02-24T05:31:20;19.10;;;6.32;;
54271;SDS011;40184;53.362;5.216;2023-02-24T05:33:48;31.40;;;4.57;;
54271;SDS011;40184;53.362;5.216;2023-02-24T05:36:18;27.80;;;5.32;;
54271;SDS011;40184;53.362;5.216;2023-02-24T05:38:48;31.30;;;6.20;;
54271;SDS011;40184;53.362;5.216;2023-02-24T05:41:22;36.58;;;5.47;;
54271;SDS011;40184;53.362;5.216;2023-02-24T05:43:56;31.17;;;7.25;;
54271;SDS011;40184;53.362;5.216;2023-02-24T05:46:26;38.45;;;5.28;;
54271;SDS011;40184;53.362;5.216;2023-02-24T05:48:53;32.95;;;6.53;;
54271;SDS011;40184;53.362;5.216;2023-02-24T05:51:23;33.58;;;6.07;;
54271;SDS011;40184;53.362;5.216;2023-02-24T05:53:51;38.00;;;6.22;;
54271;SDS011;40184;53.362;5.216;2023-02-24T05:56:20;37.83;;;5.80;;
54271;SDS011;40184;53.362;5.216;2023-02-24T05:58:47;38.50;;;6.85;;
54271;SDS011;40184;53.362;5.216;2023-02-24T06:01:30;39.53;;;5.43;;
54271;SDS011;40184;53.362;5.216;2023-02-24T06:03:59;37.70;;;7.18;;
54271;SDS011;40184;53.362;5.216;2023-02-24T06:06:37;30.60;;;6.13;;
54271;SDS011;40184;53.362;5.216;2023-02-24T06:09:05;29.15;;;6.28;;
54271;SDS011;40184;53.362;5.216;2023-02-24T06:11:34;31.70;;;5.75;;
54271;SDS011;40184;53.362;5.216;2023-02-24T06:14:01;36.55;;;5.70;;
54271;SDS011;40184;53.362;5.216;2023-02-24T06:16:31;38.08;;;7.13;;
54271;SDS011;40184;53.362;5.216;2023-02-24T06:18:57;36.08;;;6.00;;
54271;SDS011;40184;53.362;5.216;2023-02-24T06:21:23;35.70;;;7.60;;
54271;SDS011;40184;53.362;5.216;2023-02-24T06:23:53;36.58;;;7.18;;
54271;SDS011;40184;53.362;5.216;2023-02-24T06:26:24;34.00;;;6.30;;
54271;SDS011;40184;53.362;5.216;2023-02-24T06:28:54;27.55;;;6.50;;
54271;SDS011;40184;53.362;5.216;2023-02-24T06:31:22;43.83;;;6.15;;
54271;SDS011;40184;53.362;5.216;2023-02-24T06:33:48;38.95;;;7.40;;
54271;SDS011;40184;53.362;5.216;2023-02-24T06:36:14;34.03;;;6.70;;
54271;SDS011;40184;53.362;5.216;2023-02-24T06:38:40;48.97;;;7.93;;
54271;SDS011;40184;53.362;5.216;2023-02-24T06:41:06;26.15;;;5.65;;
54271;SDS011;40184;53.362;5.216;2023-02-24T06:43:35;44.47;;;7.90;;
54271;SDS011;40184;53.362;5.216;2023-02-24T06:46:03;42.88;;;6.88;;
54271;SDS011;40184;53.362;5.216;2023-02-24T06:48:30;28.33;;;6.15;;
54271;SDS011;40184;53.362;5.216;2023-02-24T06:50:58;34.05;;;7.60;;
54271;SDS011;40184;53.362;5.216;2023-02-24T06:56:02;46.35;;;7.00;;
54271;SDS011;40184;53.362;5.216;2023-02-24T06:58:38;35.60;;;6.93;;
54271;SDS011;40184;53.362;5.216;2023-02-24T07:01:13;35.58;;;7.38;;
54271;SDS011;40184;53.362;5.216;2023-02-24T07:03:41;33.33;;;6.60;;
54271;SDS011;40184;53.362;5.216;2023-02-24T07:06:24;42.80;;;8.18;;
54271;SDS011;40184;53.362;5.216;2023-02-24T07:08:50;42.20;;;7.35;;
54271;SDS011;40184;53.362;5.216;2023-02-24T07:11:17;36.05;;;8.27;;
54271;SDS011;40184;53.362;5.216;2023-02-24T07:13:46;56.35;;;8.43;;
54271;SDS011;40184;53.362;5.216;2023-02-24T07:16:14;41.97;;;7.13;;
54271;SDS011;40184;53.362;5.216;2023-02-24T07:18:41;52.55;;;9.10;;
54271;SDS011;40184;53.362;5.216;2023-02-24T07:21:08;43.72;;;7.07;;
54271;SDS011;40184;53.362;5.216;2023-02-24T07:23:40;47.95;;;7.93;;
54271;SDS011;40184;53.362;5.216;2023-02-24T07:26:11;49.03;;;8.07;;
54271;SDS011;40184;53.362;5.216;2023-02-24T07:28:39;59.00;;;9.35;;
54271;SDS011;40184;53.362;5.216;2023-02-24T07:31:06;50.03;;;9.63;;
54271;SDS011;40184;53.362;5.216;2023-02-24T07:33:37;48.75;;;8.15;;
54271;SDS011;40184;53.362;5.216;2023-02-24T07:36:04;45.30;;;7.93;;
54271;SDS011;40184;53.362;5.216;2023-02-24T07:38:35;56.92;;;10.27;;
54271;SDS011;40184;53.362;5.216;2023-02-24T07:41:02;54.55;;;8.63;;
54271;SDS011;40184;53.362;5.216;2023-02-24T07:43:30;44.75;;;8.02;;
54271;SDS011;40184;53.362;5.216;2023-02-24T07:46:03;47.35;;;7.03;;
54271;SDS011;40184;53.362;5.216;2023-02-24T07:48:31;35.38;;;7.78;;
54271;SDS011;40184;53.362;5.216;2023-02-24T07:50:57;47.47;;;7.47;;
54271;SDS011;40184;53.362;5.216;2023-02-24T07:53:23;39.30;;;7.32;;
54271;SDS011;40184;53.362;5.216;2023-02-24T07:55:52;40.72;;;7.80;;
54271;SDS011;40184;53.362;5.216;2023-02-24T07:58:18;43.70;;;7.03;;
54271;SDS011;40184;53.362;5.216;2023-02-24T08:00:45;44.08;;;7.40;;
54271;SDS011;40184;53.362;5.216;2023-02-24T08:03:32;50.00;;;6.85;;
54271;SDS011;40184;53.362;5.216;2023-02-24T08:06:06;35.65;;;5.97;;
54271;SDS011;40184;53.362;5.216;2023-02-24T08:08:51;36.30;;;6.35;;
54271;SDS011;40184;53.362;5.216;2023-02-24T08:11:41;29.98;;;5.75;;
54271;SDS011;40184;53.362;5.216;2023-02-24T08:14:17;29.92;;;4.93;;
54271;SDS011;40184;53.362;5.216;2023-02-24T08:16:44;30.13;;;6.22;;
54271;SDS011;40184;53.362;5.216;2023-02-24T08:19:15;40.55;;;7.65;;
54271;SDS011;40184;53.362;5.216;2023-02-24T08:21:49;36.88;;;6.18;;
54271;SDS011;40184;53.362;5.216;2023-02-24T08:24:17;30.13;;;7.00;;
54271;SDS011;40184;53.362;5.216;2023-02-24T08:26:48;51.95;;;9.02;;
54271;SDS011;40184;53.362;5.216;2023-02-24T08:29:32;44.63;;;7.63;;
54271;SDS011;40184;53.362;5.216;2023-02-24T08:32:07;36.40;;;6.97;;
54271;SDS011;40184;53.362;5.216;2023-02-24T08:34:34;45.03;;;8.27;;
54271;SDS011;40184;53.362;5.216;2023-02-24T08:37:01;45.53;;;8.18;;
54271;SDS011;40184;53.362;5.216;2023-02-24T08:39:27;42.92;;;8.38;;
54271;SDS011;40184;53.362;5.216;2023-02-24T08:41:57;40.28;;;6.57;;
54271;SDS011;40184;53.362;5.216;2023-02-24T08:44:23;48.78;;;8.93;;
54271;SDS011;40184;53.362;5.216;2023-02-24T08:46:51;52.53;;;8.27;;
54271;SDS011;40184;53.362;5.216;2023-02-24T08:49:18;49.15;;;7.00;;
54271;SDS011;40184;53.362;5.216;2023-02-24T08:51:46;56.53;;;10.23;;
54271;SDS011;40184;53.362;5.216;2023-02-24T08:54:14;41.17;;;8.27;;
54271;SDS011;40184;53.362;5.216;2023-02-24T08:56:46;44.35;;;8.82;;
54271;SDS011;40184;53.362;5.216;2023-02-24T08:59:20;51.53;;;11.63;;
54271;SDS011;40184;53.362;5.216;2023-02-24T09:02:20;48.42;;;9.65;;
54271;SDS011;40184;53.362;5.216;2023-02-24T09:07:35;53.75;;;8.43;;
54271;SDS011;40184;53.362;5.216;2023-02-24T09:10:03;43.05;;;9.15;;
54271;SDS011;40184;53.362;5.216;2023-02-24T09:12:35;53.47;;;8.90;;
54271;SDS011;40184;53.362;5.216;2023-02-24T09:15:06;56.55;;;10.57;;
54271;SDS011;40184;53.362;5.216;2023-02-24T09:17:32;54.72;;;8.48;;
54271;SDS011;40184;53.362;5.216;2023-02-24T09:20:08;56.42;;;10.88;;
54271;SDS011;40184;53.362;5.216;2023-02-24T09:22:55;45.92;;;7.68;;
54271;SDS011;40184;53.362;5.216;2023-02-24T09:25:32;54.58;;;9.50;;
54271;SDS011;40184;53.362;5.216;2023-02-24T09:30:46;58.22;;;9.32;;
54271;SDS011;40184;53.362;5.216;2023-02-24T09:33:18;48.78;;;9.90;;
54271;SDS011;40184;53.362;5.216;2023-02-24T09:38:27;53.65;;;10.95;;
54271;SDS011;40184;53.362;5.216;2023-02-24T09:41:20;53.03;;;9.77;;
54271;SDS011;40184;53.362;5.216;2023-02-24T09:43:59;52.10;;;9.90;;
54271;SDS011;40184;53.362;5.216;2023-02-24T09:46:39;51.78;;;9.50;;
54271;SDS011;40184;53.362;5.216;2023-02-24T09:50:02;46.50;;;9.65;;
54271;SDS011;40184;53.362;5.216;2023-02-24T09:52:11;53.95;;;12.02;;
54271;SDS011;40184;53.362;5.216;2023-02-24T09:54:41;51.15;;;11.00;;
54271;SDS011;40184;53.362;5.216;2023-02-24T09:57:46;60.55;;;10.00;;
54271;SDS011;40184;53.362;5.216;2023-02-24T10:00:33;58.92;;;12.25;;
54271;SDS011;40184;53.362;5.216;2023-02-24T10:03:17;53.00;;;12.43;;
54271;SDS011;40184;53.362;5.216;2023-02-24T10:06:22;51.25;;;10.65;;
54271;SDS011;40184;53.362;5.216;2023-02-24T10:08:55;42.85;;;8.38;;
54271;SDS011;40184;53.362;5.216;2023-02-24T10:11:37;49.03;;;12.48;;
54271;SDS011;40184;53.362;5.216;2023-02-24T10:14:19;52.70;;;9.20;;
54271;SDS011;40184;53.362;5.216;2023-02-24T10:16:50;54.28;;;9.05;;
54271;SDS011;40184;53.362;5.216;2023-02-24T10:19:37;44.55;;;10.68;;
54271;SDS011;40184;53.362;5.216;2023-02-24T10:24:53;26.70;;;7.18;;
54271;SDS011;40184;53.362;5.216;2023-02-24T10:33:37;33.28;;;7.68;;
54271;SDS011;40184;53.362;5.216;2023-02-24T10:36:19;44.90;;;10.20;;
54271;SDS011;40184;53.362;5.216;2023-02-24T10:38:54;40.75;;;8.23;;
54271;SDS011;40184;53.362;5.216;2023-02-24T10:41:20;49.00;;;8.63;;
54271;SDS011;40184;53.362;5.216;2023-02-24T10:43:56;46.20;;;9.70;;
54271;SDS011;40184;53.362;5.216;2023-02-24T10:46:29;25.20;;;6.55;;
54271;SDS011;40184;53.362;5.216;2023-02-24T10:49:02;30.40;;;6.07;;
54271;SDS011;40184;53.362;5.216;2023-02-24T10:51:37;20.60;;;4.38;;
54271;SDS011;40184;53.362;5.216;2023-02-24T10:54:19;35.28;;;7.78;;
54271;SDS011;40184;53.362;5.216;2023-02-24T11:00:00;37.20;;;7.53;;
54271;SDS011;40184;53.362;5.216;2023-02-24T11:02:32;41.90;;;7.32;;
54271;SDS011;40184;53.362;5.216;2023-02-24T11:05:19;43.45;;;8.00;;
54271;SDS011;40184;53.362;5.216;2023-02-24T11:08:03;47.92;;;8.68;;
54271;SDS011;40184;53.362;5.216;2023-02-24T11:10:39;46.22;;;7.95;;
54271;SDS011;40184;53.362;5.216;2023-02-24T11:13:18;44.58;;;8.70;;
54271;SDS011;40184;53.362;5.216;2023-02-24T11:16:02;39.75;;;8.90;;
54271;SDS011;40184;53.362;5.216;2023-02-24T11:18:50;35.90;;;7.60;;
54271;SDS011;40184;53.362;5.216;2023-02-24T11:21:18;37.67;;;7.28;;
54271;SDS011;40184;53.362;5.216;2023-02-24T11:23:52;41.88;;;15.70;;
54271;SDS011;40184;53.362;5.216;2023-02-24T11:26:22;26.73;;;7.72;;
54271;SDS011;40184;53.362;5.216;2023-02-24T11:34:42;30.50;;;5.25;;
54271;SDS011;40184;53.362;5.216;2023-02-24T11:40:19;15.65;;;3.42;;
54271;SDS011;40184;53.362;5.216;2023-02-24T11:42:52;15.80;;;3.60;;
54271;SDS011;40184;53.362;5.216;2023-02-24T11:45:28;21.30;;;4.07;;
54271;SDS011;40184;53.362;5.216;2023-02-24T11:48:03;12.55;;;2.67;;
54271;SDS011;40184;53.362;5.216;2023-02-24T11:56:01;14.70;;;3.38;;
54271;SDS011;40184;53.362;5.216;2023-02-24T12:01:26;16.20;;;2.55;;
54271;SDS011;40184;53.362;5.216;2023-02-24T12:09:25;18.40;;;3.50;;
54271;SDS011;40184;53.362;5.216;2023-02-24T12:14:46;17.83;;;4.90;;
54271;SDS011;40184;53.362;5.216;2023-02-24T12:17:24;20.75;;;4.25;;
54271;SDS011;40184;53.362;5.216;2023-02-24T12:20:17;25.63;;;4.22;;
54271;SDS011;40184;53.362;5.216;2023-02-24T12:22:57;22.08;;;4.80;;
54271;SDS011;40184;53.362;5.216;2023-02-24T12:25:44;31.30;;;4.35;;
54271;SDS011;40184;53.362;5.216;2023-02-24T12:37:04;21.27;;;4.25;;
54271;SDS011;40184;53.362;5.216;2023-02-24T12:45:30;20.70;;;3.93;;
54271;SDS011;40184;53.362;5.216;2023-02-24T12:48:20;22.08;;;4.45;;
54271;SDS011;40184;53.362;5.216;2023-02-24T12:51:20;30.23;;;5.95;;
54271;SDS011;40184;53.362;5.216;2023-02-24T12:53:52;17.60;;;3.95;;
54271;SDS011;40184;53.362;5.216;2023-02-24T12:57:18;19.52;;;5.00;;
54271;SDS011;40184;53.362;5.216;2023-02-24T12:59:36;38.28;;;5.78;;
54271;SDS011;40184;53.362;5.216;2023-02-24T13:05:18;27.77;;;5.80;;
54271;SDS011;40184;53.362;5.216;2023-02-24T13:08:10;23.02;;;4.68;;
54271;SDS011;40184;53.362;5.216;2023-02-24T13:13:30;25.63;;;4.28;;
54271;SDS011;40184;53.362;5.216;2023-02-24T13:16:28;21.27;;;3.10;;
54271;SDS011;40184;53.362;5.216;2023-02-24T13:24:35;30.35;;;7.93;;
54271;SDS011;40184;53.362;5.216;2023-02-24T13:27:23;24.77;;;5.28;;
54271;SDS011;40184;53.362;5.216;2023-02-24T13:30:23;32.95;;;5.40;;
54271;SDS011;40184;53.362;5.216;2023-02-24T13:35:42;36.78;;;7.68;;
54271;SDS011;40184;53.362;5.216;2023-02-24T13:38:21;31.45;;;7.63;;
54271;SDS011;40184;53.362;5.216;2023-02-24T13:40:49;37.53;;;6.40;;
54271;SDS011;40184;53.362;5.216;2023-02-24T13:43:26;40.50;;;7.88;;
54271;SDS011;40184;53.362;5.216;2023-02-24T13:45:57;39.75;;;7.93;;
54271;SDS011;40184;53.362;5.216;2023-02-24T13:56:17;32.13;;;6.57;;
54271;SDS011;40184;53.362;5.216;2023-02-24T14:01:50;24.38;;;5.28;;
54271;SDS011;40184;53.362;5.216;2023-02-24T14:04:32;19.85;;;4.38;;
54271;SDS011;40184;53.362;5.216;2023-02-24T14:07:04;20.52;;;4.85;;
54271;SDS011;40184;53.362;5.216;2023-02-24T14:09:38;26.73;;;5.88;;
54271;SDS011;40184;53.362;5.216;2023-02-24T14:14:42;35.75;;;7.82;;
54271;SDS011;40184;53.362;5.216;2023-02-24T14:20:07;25.45;;;5.85;;
54271;SDS011;40184;53.362;5.216;2023-02-24T14:22:33;33.30;;;5.45;;
54271;SDS011;40184;53.362;5.216;2023-02-24T14:25:06;48.50;;;11.55;;
54271;SDS011;40184;53.362;5.216;2023-02-24T14:27:35;33.10;;;13.75;;
54271;SDS011;40184;53.362;5.216;2023-02-24T14:30:02;34.75;;;6.30;;
54271;SDS011;40184;53.362;5.216;2023-02-24T14:32:29;31.60;;;6.60;;
54271;SDS011;40184;53.362;5.216;2023-02-24T14:34:58;36.47;;;7.40;;
54271;SDS011;40184;53.362;5.216;2023-02-24T14:37:25;44.65;;;9.40;;
54271;SDS011;40184;53.362;5.216;2023-02-24T14:39:55;34.03;;;6.00;;
54271;SDS011;40184;53.362;5.216;2023-02-24T14:42:23;23.98;;;5.38;;
54271;SDS011;40184;53.362;5.216;2023-02-24T14:44:50;23.10;;;4.72;;
54271;SDS011;40184;53.362;5.216;2023-02-24T14:47:18;27.58;;;5.68;;
54271;SDS011;40184;53.362;5.216;2023-02-24T14:49:52;23.45;;;6.40;;
54271;SDS011;40184;53.362;5.216;2023-02-24T14:52:26;26.42;;;4.97;;
54271;SDS011;40184;53.362;5.216;2023-02-24T14:55:01;32.25;;;6.93;;
54271;SDS011;40184;53.362;5.216;2023-02-24T14:58:31;25.63;;;5.50;;
54271;SDS011;40184;53.362;5.216;2023-02-24T15:00:52;38.97;;;7.25;;
54271;SDS011;40184;53.362;5.216;2023-02-24T15:03:42;37.53;;;6.97;;
54271;SDS011;40184;53.362;5.216;2023-02-24T15:06:16;41.05;;;6.10;;
54271;SDS011;40184;53.362;5.216;2023-02-24T15:08:48;36.95;;;8.00;;
54271;SDS011;40184;53.362;5.216;2023-02-24T15:11:20;46.67;;;8.75;;
54271;SDS011;40184;53.362;5.216;2023-02-24T15:13:50;31.58;;;7.55;;
54271;SDS011;40184;53.362;5.216;2023-02-24T15:16:20;29.48;;;6.28;;
54271;SDS011;40184;53.362;5.216;2023-02-24T15:18:53;30.38;;;6.78;;
54271;SDS011;40184;53.362;5.216;2023-02-24T15:21:22;27.02;;;5.10;;
54271;SDS011;40184;53.362;5.216;2023-02-24T15:23:57;30.20;;;6.05;;
54271;SDS011;40184;53.362;5.216;2023-02-24T15:26:31;36.35;;;6.50;;
54271;SDS011;40184;53.362;5.216;2023-02-24T15:28:59;55.42;;;16.70;;
54271;SDS011;40184;53.362;5.216;2023-02-24T15:31:27;38.10;;;7.95;;
54271;SDS011;40184;53.362;5.216;2023-02-24T15:33:57;37.90;;;7.53;;
54271;SDS011;40184;53.362;5.216;2023-02-24T15:36:27;38.05;;;7.97;;
54271;SDS011;40184;53.362;5.216;2023-02-24T15:38:58;31.33;;;7.28;;
54271;SDS011;40184;53.362;5.216;2023-02-24T15:41:40;33.67;;;6.53;;
54271;SDS011;40184;53.362;5.216;2023-02-24T15:44:23;29.67;;;6.47;;
54271;SDS011;40184;53.362;5.216;2023-02-24T15:46:51;25.20;;;6.00;;
54271;SDS011;40184;53.362;5.216;2023-02-24T15:49:17;46.33;;;7.30;;
54271;SDS011;40184;53.362;5.216;2023-02-24T15:51:43;21.45;;;5.75;;
54271;SDS011;40184;53.362;5.216;2023-02-24T15:54:11;38.20;;;7.65;;
54271;SDS011;40184;53.362;5.216;2023-02-24T15:56:51;45.08;;;8.77;;
54271;SDS011;40184;53.362;5.216;2023-02-24T15:59:17;37.60;;;8.43;;
54271;SDS011;40184;53.362;5.216;2023-02-24T16:01:45;43.75;;;10.10;;
54271;SDS011;40184;53.362;5.216;2023-02-24T16:04:15;33.17;;;8.18;;
54271;SDS011;40184;53.362;5.216;2023-02-24T16:06:40;38.08;;;9.27;;
54271;SDS011;40184;53.362;5.216;2023-02-24T16:09:18;41.17;;;9.05;;
54271;SDS011;40184;53.362;5.216;2023-02-24T16:11:53;47.63;;;9.32;;
54271;SDS011;40184;53.362;5.216;2023-02-24T16:14:19;47.97;;;9.57;;
54271;SDS011;40184;53.362;5.216;2023-02-24T16:16:44;38.72;;;7.38;;
54271;SDS011;40184;53.362;5.216;2023-02-24T16:19:13;46.03;;;18.17;;
54271;SDS011;40184;53.362;5.216;2023-02-24T16:21:40;29.70;;;8.35;;
54271;SDS011;40184;53.362;5.216;2023-02-24T16:24:05;32.53;;;8.00;;
54271;SDS011;40184;53.362;5.216;2023-02-24T16:26:32;129.15;;;50.10;;
54271;SDS011;40184;53.362;5.216;2023-02-24T16:29:00;239.10;;;99.90;;
54271;SDS011;40184;53.362;5.216;2023-02-24T16:31:26;140.35;;;67.72;;
54271;SDS011;40184;53.362;5.216;2023-02-24T16:33:53;56.33;;;19.98;;
54271;SDS011;40184;53.362;5.216;2023-02-24T16:36:19;44.15;;;8.15;;
54271;SDS011;40184;53.362;5.216;2023-02-24T16:38:46;25.83;;;6.38;;
54271;SDS011;40184;53.362;5.216;2023-02-24T16:41:14;32.35;;;8.13;;
54271;SDS011;40184;53.362;5.216;2023-02-24T16:43:40;32.95;;;6.38;;
54271;SDS011;40184;53.362;5.216;2023-02-24T16:46:06;30.48;;;7.43;;
54271;SDS011;40184;53.362;5.216;2023-02-24T16:48:40;42.83;;;8.80;;
54271;SDS011;40184;53.362;5.216;2023-02-24T16:51:10;28.65;;;6.85;;
54271;SDS011;40184;53.362;5.216;2023-02-24T16:53:36;37.72;;;8.82;;
54271;SDS011;40184;53.362;5.216;2023-02-24T16:56:02;31.15;;;6.65;;
54271;SDS011;40184;53.362;5.216;2023-02-24T16:58:29;37.92;;;8.35;;
54271;SDS011;40184;53.362;5.216;2023-02-24T17:00:56;32.90;;;7.32;;
54271;SDS011;40184;53.362;5.216;2023-02-24T17:03:25;31.48;;;7.25;;
54271;SDS011;40184;53.362;5.216;2023-02-24T17:05:55;40.10;;;8.85;;
54271;SDS011;40184;53.362;5.216;2023-02-24T17:08:21;40.67;;;7.25;;
54271;SDS011;40184;53.362;5.216;2023-02-24T17:10:47;25.45;;;6.30;;
54271;SDS011;40184;53.362;5.216;2023-02-24T17:13:15;35.10;;;6.53;;
54271;SDS011;40184;53.362;5.216;2023-02-24T17:15:43;34.13;;;6.60;;
54271;SDS011;40184;53.362;5.216;2023-02-24T17:18:09;23.52;;;4.88;;
54271;SDS011;40184;53.362;5.216;2023-02-24T17:20:36;20.30;;;5.03;;
54271;SDS011;40184;53.362;5.216;2023-02-24T17:23:03;22.90;;;5.20;;